Time;durP1;ratioP1;P1;durP2;ratioP2;P2;SDS_P1;SDS_P2;PMS_P1;PMS_P2;Temp;Humidity;BMP_temperature;BMP_pressure;BME280_temperature;BME280_humidity;BME280_pressure;Samples;Min_cycle;Max_cycle;Signal;HPM_P1;HPM_P2
2022/04/27 00:00:11;;;;;;;;;;;;;;;10.68;100.00;99927.28;6213443;23;20385;-84
2022/04/27 00:02:40;;;;;;;;;;;;;;;10.65;100.00;99936.50;6212695;23;19951;-84
2022/04/27 00:05:05;;;;;;;;;;;;;;;10.61;100.00;99933.06;6213494;23;20266;-84
2022/04/27 00:07:31;;;;;;;;;;;;;;;10.66;100.00;99937.28;6213490;23;19968;-84
2022/04/27 00:09:56;;;;;;;;;;;;;;;10.62;100.00;99942.16;6186437;23;19922;-84
2022/04/27 00:12:22;;;;;;;;;;;;;;;10.60;100.00;99931.50;6213227;23;19922;-84
2022/04/27 00:14:47;;;;;;;;;;;;;;;10.59;100.00;99934.72;6213456;23;19915;-84
2022/04/27 00:17:13;;;;;;;;;;;;;;;10.58;100.00;99933.16;6186439;23;19918;-84
2022/04/27 00:19:38;;;;;;;;;;;;;;;10.58;100.00;99933.16;6213686;23;19969;-84
2022/04/27 00:22:03;;;;;;;;;;;;;;;10.54;100.00;99924.94;6213032;23;20018;-84
2022/04/27 00:24:29;;;;;;;;;;;;;;;10.53;100.00;99919.81;6186983;23;20332;-84
2022/04/27 00:26:54;;;;;;;;;;;;;;;10.44;100.00;99916.91;6186437;23;19908;-84
2022/04/27 00:29:19;;;;;;;;;;;;;;;10.31;100.00;99922.44;6213462;23;19938;-84
2022/04/27 00:31:45;;;;;;;;;;;;;;;10.23;100.00;99927.38;6212037;23;19985;-83
2022/04/27 00:34:10;;;;;;;;;;;;;;;10.18;100.00;99933.47;6186500;23;19912;-84
2022/04/27 00:36:36;;;;;;;;;;;;;;;10.10;100.00;99932.06;6213288;23;19908;-85
2022/04/27 00:39:02;;;;;;;;;;;;;;;10.06;100.00;99931.38;6212968;23;19915;-84
2022/04/27 00:41:27;;;;;;;;;;;;;;;9.97;100.00;99945.06;6186975;23;20042;-84
2022/04/27 00:43:54;;;;;;;;;;;;;;;9.91;100.00;99951.59;6213931;23;19971;-84
2022/04/27 00:46:20;;;;;;;;;;;;;;;9.85;100.00;99951.31;6215275;23;19908;-84
2022/04/27 00:48:45;;;;;;;;;;;;;;;9.86;100.00;99952.09;6214785;23;19983;-84
2022/04/27 00:51:13;;;;;;;;;;;;;;;9.81;100.00;99950.63;6214955;23;20292;-85
2022/04/27 00:53:40;;;;;;;;;;;;;;;9.72;100.00;99951.22;6188213;23;20007;-84
2022/04/27 00:56:06;;;;;;;;;;;;;;;9.69;100.00;99956.88;6214825;23;19914;-84
2022/04/27 00:58:31;;;;;;;;;;;;;;;9.67;100.00;99953.72;6188205;23;20327;-83
2022/04/27 01:00:57;;;;;;;;;;;;;;;9.65;100.00;99956.16;6214922;23;19918;-84
2022/04/27 01:03:23;;;;;;;;;;;;;;;9.60;100.00;99953.91;6182639;23;20630;-83
2022/04/27 01:05:48;;;;;;;;;;;;;;;9.55;100.00;99963.50;6183393;23;20322;-84
2022/04/27 01:08:21;;;;;;;;;;;;;;;9.52;100.00;99958.06;6157912;23;19922;-84
2022/04/27 01:10:47;;;;;;;;;;;;;;;9.51;100.00;99957.28;6183559;23;19912;-84
2022/04/27 01:13:15;;;;;;;;;;;;;;;9.49;100.00;99964.47;6182865;23;19912;-89
2022/04/27 01:15:44;;;;;;;;;;;;;;;9.37;100.00;99963.16;6159849;23;19959;-88
2022/04/27 01:18:10;;;;;;;;;;;;;;;9.35;100.00;99968.34;6183041;23;19912;-88
2022/04/27 01:20:44;;;;;;;;;;;;;;;9.30;100.00;99958.56;6158789;23;19959;-89
2022/04/27 01:23:13;;;;;;;;;;;;;;;9.28;100.00;99954.66;6159029;23;19912;-88
2022/04/27 01:25:46;;;;;;;;;;;;;;;9.21;100.00;99950.09;6184832;23;19916;-88
2022/04/27 01:28:12;;;;;;;;;;;;;;;9.18;100.00;99945.38;6183097;23;20348;-88
2022/04/27 01:30:37;;;;;;;;;;;;;;;9.12;100.00;99946.34;6183277;23;19940;-84
2022/04/27 01:33:09;;;;;;;;;;;;;;;9.06;100.00;99954.34;6158108;23;19914;-84
2022/04/27 01:35:35;;;;;;;;;;;;;;;9.04;100.00;99956.78;6184372;23;20246;-84
2022/04/27 01:38:00;;;;;;;;;;;;;;;9.03;100.00;99960.75;6182630;23;19912;-84
2022/04/27 01:40:25;;;;;;;;;;;;;;;9.05;100.00;99958.34;6184480;23;19904;-84
2022/04/27 01:42:51;;;;;;;;;;;;;;;9.03;100.00;99965.50;6183272;23;19912;-83
2022/04/27 01:45:16;;;;;;;;;;;;;;;9.01;100.00;99957.66;6183851;23;19908;-84
2022/04/27 01:47:42;;;;;;;;;;;;;;;8.98;100.00;99961.25;6184418;23;20231;-83
2022/04/27 01:50:07;;;;;;;;;;;;;;;8.94;100.00;99952.25;6183493;23;19947;-88
2022/04/27 01:55:19;;;;;;;;;;;;;;;8.90;100.00;99954.31;6183682;23;19920;-84
2022/04/27 01:57:45;;;;;;;;;;;;;;;8.81;100.00;99948.59;6184224;23;19912;-84
2022/04/27 02:00:10;;;;;;;;;;;;;;;8.80;100.00;99955.31;6182707;23;20227;-84
2022/04/27 02:02:40;;;;;;;;;;;;;;;8.76;100.00;99938.81;6187876;23;19936;-84
2022/04/27 02:05:06;;;;;;;;;;;;;;;8.72;100.00;99945.63;6187041;23;19919;-84
2022/04/27 02:07:31;;;;;;;;;;;;;;;8.72;100.00;99937.31;6214217;23;19912;-84
2022/04/27 02:09:56;;;;;;;;;;;;;;;8.71;100.00;99933.75;6212740;23;19951;-88
2022/04/27 02:12:22;;;;;;;;;;;;;;;8.71;100.00;99938.50;6213950;23;20322;-87
2022/04/27 02:15:02;;;;;;;;;;;;;;;8.64;100.00;99927.59;6187185;23;20486;-87
2022/04/27 02:17:30;;;;;;;;;;;;;;;8.64;100.00;99927.59;6187544;23;19943;-88
2022/04/27 02:19:55;;;;;;;;;;;;;;;8.61;100.00;99942.28;6213850;23;19915;-88
2022/04/27 02:22:20;;;;;;;;;;;;;;;8.58;100.00;99945.88;6187098;23;20273;-88
2022/04/27 02:24:47;;;;;;;;;;;;;;;8.55;100.00;99935.69;6187387;23;19939;-89
2022/04/27 02:27:13;;;;;;;;;;;;;;;8.55;100.00;99941.22;6214016;23;19916;-83
2022/04/27 02:29:38;;;;;;;;;;;;;;;8.54;100.00;99940.44;6187421;23;19904;-83
2022/04/27 02:32:15;;;;;;;;;;;;;;;8.52;100.00;99936.53;6212120;23;19947;-83
2022/04/27 02:34:42;;;;;;;;;;;;;;;8.56;100.00;99946.31;6187349;23;20030;-84
2022/04/27 02:37:09;;;;;;;;;;;;;;;8.58;100.00;99946.66;6186906;23;19927;-84
2022/04/27 02:39:39;;;;;;;;;;;;;;;8.58;100.00;99946.66;6187542;23;20588;-83
2022/04/27 02:42:05;;;;;;;;;;;;;;;8.57;100.00;99936.06;6213724;23;19915;-83
2022/04/27 02:44:31;;;;;;;;;;;;;;;8.54;100.00;99939.66;6187436;23;19919;-83
2022/04/27 02:46:57;;;;;;;;;;;;;;;8.52;100.00;99942.84;6187390;23;19934;-83
2022/04/27 02:52:07;;;;;;;;;;;;;;;8.49;100.00;99959.50;6186644;23;19930;-84
2022/04/27 02:54:51;;;;;;;;;;;;;;;8.50;100.00;99961.06;6214072;23;19998;-83
2022/04/27 02:57:16;;;;;;;;;;;;;;;8.47;100.00;99959.16;6213406;23;19947;-84
2022/04/27 02:59:42;;;;;;;;;;;;;;;8.47;100.00;99968.22;6212293;23;20295;-83
2022/04/27 03:02:09;;;;;;;;;;;;;;;8.47;100.00;99967.44;6186598;23;19931;-84
2022/04/27 03:04:35;;;;;;;;;;;;;;;8.48;100.00;99974.53;6186904;23;19912;-87
2022/04/27 03:07:02;;;;;;;;;;;;;;;8.50;100.00;99980.41;6186552;23;19916;-87
2022/04/27 03:09:29;;;;;;;;;;;;;;;8.52;100.00;99989.84;6187213;23;19922;-87
2022/04/27 03:11:55;;;;;;;;;;;;;;;8.48;100.00;99980.06;6187232;23;19908;-89
2022/04/27 03:14:31;;;;;;;;;;;;;;;8.47;100.00;99978.50;6163271;23;19916;-88
2022/04/27 03:16:56;;;;;;;;;;;;;;;8.47;100.00;99979.28;6213805;23;19934;-87
2022/04/27 03:19:22;;;;;;;;;;;;;;;8.49;100.00;99984.41;6186849;23;20319;-88
2022/04/27 03:21:47;;;;;;;;;;;;;;;8.46;100.00;99982.44;6213652;23;19916;-87
2022/04/27 03:24:14;;;;;;;;;;;;;;;8.46;100.00;99996.28;6162295;23;19908;-88
2022/04/27 03:26:40;;;;;;;;;;;;;;;8.43;100.00;100004.22;6187005;23;19912;-83
2022/04/27 03:29:05;;;;;;;;;;;;;;;8.43;100.00;100004.22;6186625;23;20003;-83
2022/04/27 03:31:35;;;;;;;;;;;;;;;8.45;100.00;100005.78;6187295;23;20342;-83
2022/04/27 03:34:00;;;;;;;;;;;;;;;8.41;100.00;100009.38;6186943;23;20330;-83
2022/04/27 03:36:26;;;;;;;;;;;;;;;8.34;100.00;100004.00;6161747;23;19912;-84
2022/04/27 03:38:51;;;;;;;;;;;;;;;8.39;100.00;100017.34;6162221;23;20297;-83
2022/04/27 03:41:20;;;;;;;;;;;;;;;8.36;100.00;100020.94;6186899;23;19908;-83
2022/04/27 03:43:46;;;;;;;;;;;;;;;8.32;100.00;100017.47;6187099;23;19911;-83
2022/04/27 03:46:11;;;;;;;;;;;;;;;8.30;100.00;100025.38;6213524;23;19915;-83
2022/04/27 03:48:39;;;;;;;;;;;;;;;8.28;100.00;100033.31;6211926;23;19916;-84
2022/04/27 03:51:05;;;;;;;;;;;;;;;8.25;100.00;100034.13;6186719;23;19904;-82
2022/04/27 03:53:31;;;;;;;;;;;;;;;8.20;100.00;100036.59;6187086;23;20340;-83
2022/04/27 03:55:57;;;;;;;;;;;;;;;8.18;100.00;100039.00;6212048;23;19912;-83
2022/04/27 03:58:25;;;;;;;;;;;;;;;8.16;100.00;100041.41;6211660;23;19931;-82
2022/04/27 04:00:51;;;;;;;;;;;;;;;8.13;100.00;100043.00;6185726;23;19942;-88
2022/04/27 04:03:19;;;;;;;;;;;;;;;8.12;100.00;100052.53;6185103;23;19970;-82
2022/04/27 04:05:45;;;;;;;;;;;;;;;8.14;100.00;100054.84;6160886;23;19923;-88
2022/04/27 04:08:11;;;;;;;;;;;;;;;8.14;100.00;100060.38;6211402;23;19912;-89
2022/04/27 04:10:38;;;;;;;;;;;;;;;8.11;100.00;100062.00;6185470;23;19982;-89
2022/04/27 04:13:04;;;;;;;;;;;;;;;8.12;100.00;100065.56;6210089;23;19915;-88
2022/04/27 04:15:47;;;;;;;;;;;;;;;8.07;100.00;100072.34;6211863;23;19954;-89
2022/04/27 04:18:39;;;;;;;;;;;;;;;8.04;100.00;100078.69;6186758;23;19986;-89
2022/04/27 04:21:23;;;;;;;;;;;;;;;8.04;100.00;100084.22;6191297;23;19923;-83
2022/04/27 04:23:57;;;;;;;;;;;;;;;8.03;100.00;100082.66;6187102;23;19916;-89
2022/04/27 04:29:07;;;;;;;;;;;;;;;8.04;100.00;100089.75;6190966;23;19915;-89
2022/04/27 04:31:33;;;;;;;;;;;;;;;8.03;100.00;100093.72;6187406;23;20211;-90
2022/04/27 04:34:23;;;;;;;;;;;;;;;7.99;100.00;100101.28;6212074;23;19923;-92
2022/04/27 04:36:49;;;;;;;;;;;;;;;7.98;100.00;100099.69;6187000;23;19912;-90
2022/04/27 04:39:15;;;;;;;;;;;;;;;8.00;100.00;100094.56;6186615;23;19923;-89
2022/04/27 04:41:41;;;;;;;;;;;;;;;8.02;100.00;100110.69;6159700;23;19908;-84
2022/04/27 04:44:07;;;;;;;;;;;;;;;8.03;100.00;100112.25;6185163;23;19916;-84
2022/04/27 04:47:02;;;;;;;;;;;;;;;8.01;100.00;100111.91;6183281;23;19998;-84
2022/04/27 04:49:46;;;;;;;;;;;;;;;8.04;100.00;100111.84;6211819;23;20381;-85
2022/04/27 04:52:32;;;;;;;;;;;;;;;8.00;100.00;100104.81;6190180;23;19958;-82
2022/04/27 04:55:26;;;;;;;;;;;;;;;8.03;100.00;100107.53;6199997;23;20246;-83
2022/04/27 04:58:12;;;;;;;;;;;;;;;8.03;100.00;100106.72;6164246;23;19935;-82
2022/04/27 05:01:09;;;;;;;;;;;;;;;8.00;100.00;100116.66;6160318;23;19920;-85
2022/04/27 05:04:04;;;;;;;;;;;;;;;7.98;100.00;100110.75;6155361;23;20299;-83
2022/04/27 05:06:46;;;;;;;;;;;;;;;7.98;100.00;100103.25;6210369;23;20322;-83
2022/04/27 05:09:31;;;;;;;;;;;;;;;8.02;100.00;100097.66;6161588;23;19911;-83
2022/04/27 05:12:19;;;;;;;;;;;;;;;8.01;100.00;100120.19;6164895;23;19924;-83
2022/04/27 05:15:04;;;;;;;;;;;;;;;7.98;100.00;100113.50;6212278;23;20238;-83
2022/04/27 05:17:52;;;;;;;;;;;;;;;8.05;100.00;100129.97;6163242;23;19915;-84
2022/04/27 05:20:38;;;;;;;;;;;;;;;8.04;100.00;100124.88;6213772;23;19919;-84
2022/04/27 05:23:22;;;;;;;;;;;;;;;8.09;100.00;100127.94;6213110;23;20302;-83
2022/04/27 05:26:07;;;;;;;;;;;;;;;8.07;100.00;100130.34;6213690;23;19978;-84
2022/04/27 05:31:59;;;;;;;;;;;;;;;7.98;100.00;100130.88;6185503;23;19916;-84
2022/04/27 05:34:48;;;;;;;;;;;;;;;7.97;100.00;100134.03;6189916;23;19916;-84
2022/04/27 05:37:43;;;;;;;;;;;;;;;8.00;100.00;100140.72;6199968;23;20279;-83
2022/04/27 05:40:34;;;;;;;;;;;;;;;7.99;100.00;100137.19;6212974;23;19919;-85
2022/04/27 05:43:13;;;;;;;;;;;;;;;8.05;100.00;100132.72;6189206;23;20330;-83
2022/04/27 05:45:50;;;;;;;;;;;;;;;8.02;100.00;100133.56;6211700;23;19922;-83
2022/04/27 05:48:36;;;;;;;;;;;;;;;8.06;100.00;100141.81;6211933;23;19912;-84
2022/04/27 05:51:25;;;;;;;;;;;;;;;8.10;100.00;100143.31;6185546;23;19912;-84
2022/04/27 05:54:22;;;;;;;;;;;;;;;8.08;100.00;100145.72;6182226;23;19912;-84
2022/04/27 05:57:08;;;;;;;;;;;;;;;8.12;100.00;100154.75;6201533;23;20072;-90
2022/04/27 05:59:53;;;;;;;;;;;;;;;8.11;100.00;100155.94;6212505;23;19912;-84
2022/04/27 06:02:38;;;;;;;;;;;;;;;8.15;100.00;100148.38;6212470;23;20393;-84
2022/04/27 06:05:04;;;;;;;;;;;;;;;8.15;100.00;100155.88;6210515;23;19912;-84
2022/04/27 06:07:30;;;;;;;;;;;;;;;8.11;100.00;100149.63;6186752;23;20341;-84
2022/04/27 06:09:59;;;;;;;;;;;;;;;8.12;100.00;100148.44;6212527;23;20006;-84
2022/04/27 06:12:35;;;;;;;;;;;;;;;8.08;100.00;100151.25;6212339;23;19916;-84
2022/04/27 06:15:19;;;;;;;;;;;;;;;8.09;100.00;100155.56;6213037;23;19966;-91
2022/04/27 06:17:45;;;;;;;;;;;;;;;8.07;100.00;100171.00;6211808;23;19916;-84
2022/04/27 06:20:12;;;;;;;;;;;;;;;8.10;100.00;100165.41;6212447;23;19962;-83
2022/04/27 06:22:39;;;;;;;;;;;;;;;8.07;100.00;100171.00;6187893;23;19950;-84
2022/04/27 06:25:05;;;;;;;;;;;;;;;8.05;100.00;100174.16;6212321;23;19908;-84
2022/04/27 06:27:39;;;;;;;;;;;;;;;8.08;100.00;100172.56;6212473;23;19974;-84
2022/04/27 06:30:04;;;;;;;;;;;;;;;8.12;100.00;100170.53;6212496;23;19911;-83
2022/04/27 06:32:33;;;;;;;;;;;;;;;8.15;100.00;100172.47;6212764;23;20318;-84
2022/04/27 06:35:02;;;;;;;;;;;;;;;8.14;100.00;100179.97;6212401;23;19916;-84
2022/04/27 06:37:28;;;;;;;;;;;;;;;8.16;100.00;100174.03;6212202;23;19916;-89
2022/04/27 06:39:53;;;;;;;;;;;;;;;8.16;100.00;100172.06;6212589;23;19908;-88
2022/04/27 06:42:20;;;;;;;;;;;;;;;8.16;100.00;100166.53;6213571;23;20009;-88
2022/04/27 06:45:04;;;;;;;;;;;;;;;8.19;100.00;100168.44;6214020;23;19932;-88
2022/04/27 06:47:48;;;;;;;;;;;;;;;8.16;100.00;100177.59;6213663;23;19969;-89
2022/04/27 06:50:43;;;;;;;;;;;;;;;8.16;100.00;100174.81;6159161;23;19928;-89
2022/04/27 06:53:27;;;;;;;;;;;;;;;8.16;100.00;100185.88;6213639;23;19962;-83
2022/04/27 06:56:12;;;;;;;;;;;;;;;8.18;100.00;100177.94;6213364;23;19912;-83
2022/04/27 06:59:00;;;;;;;;;;;;;;;8.21;100.00;100171.56;6198923;23;19919;-83
2022/04/27 07:01:32;;;;;;;;;;;;;;;8.29;100.00;100175.81;6211642;23;19985;-83
2022/04/27 07:04:06;;;;;;;;;;;;;;;8.33;100.00;100178.56;6213113;23;19916;-84
2022/04/27 07:06:31;;;;;;;;;;;;;;;8.37;100.00;100191.09;6212027;23;19994;-83
2022/04/27 07:08:57;;;;;;;;;;;;;;;8.39;100.00;100187.91;6212138;23;20342;-83
2022/04/27 07:11:23;;;;;;;;;;;;;;;8.38;100.00;100198.19;6213482;23;20290;-84
2022/04/27 07:13:48;;;;;;;;;;;;;;;8.40;100.00;100201.34;6212002;23;19991;-88
2022/04/27 07:16:13;;;;;;;;;;;;;;;8.38;100.00;100203.72;6211968;23;20395;-88
2022/04/27 07:18:39;;;;;;;;;;;;;;;8.38;100.00;100208.47;6213379;23;19991;-88
2022/04/27 07:21:08;;;;;;;;;;;;;;;8.33;100.00;100204.19;6213833;23;19931;-88
2022/04/27 07:23:33;;;;;;;;;;;;;;;8.34;100.00;100207.72;6211408;23;19912;-88
2022/04/27 07:25:58;;;;;;;;;;;;;;;8.35;100.00;100212.06;6213806;23;19922;-88
2022/04/27 07:28:24;;;;;;;;;;;;;;;8.35;100.00;100203.78;6211511;23;19911;-88
2022/04/27 07:30:49;;;;;;;;;;;;;;;8.38;100.00;100209.25;6213644;23;19955;-89
2022/04/27 07:33:15;;;;;;;;;;;;;;;8.43;100.00;100202.47;6213287;23;19916;-83
2022/04/27 07:35:40;;;;;;;;;;;;;;;8.44;100.00;100206.81;6211871;23;19991;-87
2022/04/27 07:38:06;;;;;;;;;;;;;;;8.47;100.00;100213.47;6213287;23;19939;-88
2022/04/27 07:40:31;;;;;;;;;;;;;;;8.51;100.00;100212.22;6211809;23;20227;-88
2022/04/27 07:42:59;;;;;;;;;;;;;;;8.52;100.00;100215.75;6213353;23;19982;-88
2022/04/27 07:45:25;;;;;;;;;;;;;;;8.59;100.00;100223.94;6236946;23;19921;-87
2022/04/27 07:47:50;;;;;;;;;;;;;;;8.63;100.00;100221.91;6211921;23;19930;-87
2022/04/27 07:50:19;;;;;;;;;;;;;;;8.65;100.00;100225.84;6213121;23;20341;-87
2022/04/27 07:52:45;;;;;;;;;;;;;;;8.70;100.00;100222.56;6214527;23;19912;-87
2022/04/27 07:55:10;;;;;;;;;;;;;;;8.71;100.00;100215.84;6215382;23;19908;-83
2022/04/27 07:57:36;;;;;;;;;;;;;;;8.75;100.00;100218.53;6215455;23;19912;-84
2022/04/27 08:00:05;;;;;;;;;;;;;;;8.73;100.00;100235.56;6215136;23;19970;-84
2022/04/27 08:02:37;;;;;;;;;;;;;;;8.68;100.00;100240.78;6215755;23;19911;-84
2022/04/27 08:05:02;;;;;;;;;;;;;;;8.62;100.00;100240.47;6215089;23;20331;-83
2022/04/27 08:07:41;;;;;;;;;;;;;;;8.62;100.00;100245.22;6215442;23;19925;-84
2022/04/27 08:10:09;;;;;;;;;;;;;;;8.62;100.00;100259.03;6215402;23;19943;-88
2022/04/27 08:12:35;;;;;;;;;;;;;;;8.63;100.00;100257.84;6213623;23;19912;-86
2022/04/27 08:15:00;;;;;;;;;;;;;;;8.62;100.00;100265.34;6215071;23;19912;-87
2022/04/27 08:17:26;;;;;;;;;;;;;;;8.65;100.00;100267.31;6215217;23;20254;-86
2022/04/27 08:21:13;;;;;;;;;;;;;;;8.67;100.00;100277.94;6213379;23;19915;-87
2022/04/27 08:22:36;;;;;;;;;;;;;;;8.67;100.00;100269.63;6215172;23;19912;-87
2022/04/27 08:25:02;;;;;;;;;;;;;;;8.66;100.00;100263.31;6215075;23;20219;-86
2022/04/27 08:27:27;;;;;;;;;;;;;;;8.68;100.00;100276.75;6215260;23;20399;-87
2022/04/27 08:29:53;;;;;;;;;;;;;;;8.66;100.00;100268.84;6215305;23;19914;-87
2022/04/27 08:32:21;;;;;;;;;;;;;;;8.63;100.00;100279.97;6215153;23;19923;-83
2022/04/27 08:34:48;;;;;;;;;;;;;;;8.57;100.00;100281.66;6215105;23;20326;-84
2022/04/27 08:37:14;;;;;;;;;;;;;;;8.55;100.00;100289.56;6215079;23;19915;-83
2022/04/27 08:39:39;;;;;;;;;;;;;;;8.50;100.00;100301.09;6214786;23;19912;-83
2022/04/27 08:42:05;;;;;;;;;;;;;;;8.48;100.00;100300.75;6215133;23;19918;-82
2022/04/27 08:44:30;;;;;;;;;;;;;;;8.50;100.00;100309.38;6213098;23;19939;-83
2022/04/27 08:46:56;;;;;;;;;;;;;;;8.49;100.00;100305.84;6215275;23;19912;-83
2022/04/27 08:49:21;;;;;;;;;;;;;;;8.51;100.00;100308.19;6212885;23;19965;-83
2022/04/27 08:51:48;;;;;;;;;;;;;;;8.56;100.00;100313.25;6215359;23;19993;-88
2022/04/27 08:54:14;;;;;;;;;;;;;;;8.55;100.00;100287.59;6214597;23;19908;-90
2022/04/27 08:56:40;;;;;;;;;;;;;;;8.54;100.00;100276.94;6215400;23;20281;-90
2022/04/27 08:59:08;;;;;;;;;;;;;;;8.50;100.00;100268.69;6214581;23;19908;-91
2022/04/27 09:01:33;;;;;;;;;;;;;;;8.47;100.00;100266.00;6214621;23;19919;-92
2022/04/27 09:04:11;;;;;;;;;;;;;;;8.41;100.00;100277.50;6214467;23;19920;-90
2022/04/27 09:06:37;;;;;;;;;;;;;;;8.39;100.00;100288.22;6214870;23;19912;-90
2022/04/27 09:09:02;;;;;;;;;;;;;;;8.37;100.00;100296.13;6213297;23;19966;-91
2022/04/27 09:11:29;;;;;;;;;;;;;;;8.39;100.00;100285.44;6214926;23;19990;-90
2022/04/27 09:13:59;;;;;;;;;;;;;;;8.42;100.00;100290.13;6214770;23;19912;-91
2022/04/27 09:16:26;;;;;;;;;;;;;;;8.45;100.00;100290.53;6213047;23;19911;-91
2022/04/27 09:22:02;;;;;;;;;;;;;;;8.61;100.00;100276.84;6214832;23;19967;-93
2022/04/27 09:24:28;;;;;;;;;;;;;;;8.71;100.00;100275.91;6208874;23;19922;-91
2022/04/27 09:27:11;;;;;;;;;;;;;;;8.82;100.00;100263.47;6215513;23;19947;-93
2022/04/27 09:29:37;;;;;;;;;;;;;;;8.93;100.00;100271.59;6214484;23;19922;-90
2022/04/27 09:32:04;;;;;;;;;;;;;;;9.06;100.00;100257.97;6214676;23;19916;-90
2022/04/27 09:34:29;;;;;;;;;;;;;;;9.23;100.00;100265.94;6214079;23;19911;-90
2022/04/27 09:36:55;;;;;;;;;;;;;;;9.46;100.00;100272.66;6213219;23;19956;-90
2022/04/27 09:39:25;;;;;;;;;;;;;;;9.72;100.00;100269.00;6213953;23;19940;-90
2022/04/27 09:41:50;;;;;;;;;;;;;;;10.08;100.00;100267.06;6188213;23;19912;-89
2022/04/27 09:44:32;;;;;;;;;;;;;;;10.24;100.00;100281.00;6213229;23;19954;-90
2022/04/27 09:46:58;;;;;;;;;;;;;;;10.44;100.00;100277.41;6213547;23;20250;-90
2022/04/27 09:49:24;;;;;;;;;;;;;;;10.65;100.00;100271.38;6212653;23;19912;-89
2022/04/27 09:51:50;;;;;;;;;;;;;;;10.74;100.00;100274.34;6215451;23;19958;-89
2022/04/27 09:54:17;;;;;;;;;;;;;;;10.82;100.00;100281.28;6212922;23;19908;-88
2022/04/27 09:56:43;;;;;;;;;;;;;;;10.88;100.00;100290.66;6214539;23;19918;-89
2022/04/27 09:59:08;;;;;;;;;;;;;;;10.66;100.00;100281.28;6214842;23;19920;-90
2022/04/27 10:01:37;;;;;;;;;;;;;;;10.57;100.00;100289.41;6212934;23;20371;-89
2022/04/27 10:04:03;;;;;;;;;;;;;;;10.63;100.00;100296.00;6213059;23;19911;-89
2022/04/27 10:06:29;;;;;;;;;;;;;;;10.75;100.00;100287.00;6213999;23;19982;-88
2022/04/27 10:08:55;;;;;;;;;;;;;;;10.87;100.00;100289.09;6187801;23;20286;-89
2022/04/27 10:11:20;;;;;;;;;;;;;;;10.92;100.00;100291.34;6212552;23;19911;-89
2022/04/27 10:13:45;;;;;;;;;;;;;;;10.86;100.00;100293.09;6212716;23;20364;-88
2022/04/27 10:16:11;;;;;;;;;;;;;;;10.83;100.00;100296.72;6213775;23;19908;-88
2022/04/27 10:18:36;;;;;;;;;;;;;;;10.86;100.00;100290.31;6213627;23;19946;-89
2022/04/27 10:21:04;;;;;;;;;;;;;;;11.01;100.00;100290.75;6214136;23;19995;-90
2022/04/27 10:23:32;;;;;;;;;;;;;;;11.13;100.00;100296.38;6187619;23;19949;-85
2022/04/27 10:26:09;;;;;;;;;;;;;;;11.09;99.56;100298.47;6188096;23;19939;-85
2022/04/27 10:28:43;;;;;;;;;;;;;;;10.95;100.00;100293.28;6213627;23;19919;-84
2022/04/27 10:31:08;;;;;;;;;;;;;;;11.03;100.00;100291.09;6212411;23;19915;-85
2022/04/27 10:33:50;;;;;;;;;;;;;;;11.02;100.00;100295.88;6212067;23;19991;-85
2022/04/27 10:36:27;;;;;;;;;;;;;;;11.13;100.00;100295.59;6214156;23;20398;-84
2022/04/27 10:39:11;;;;;;;;;;;;;;;11.18;100.00;100298.63;6213779;23;19927;-85
2022/04/27 10:41:41;;;;;;;;;;;;;;;11.13;97.72;100299.16;6213601;23;20003;-84
2022/04/27 10:44:06;;;;;;;;;;;;;;;11.15;99.18;100305.06;6212441;23;19912;-84
2022/04/27 10:46:38;;;;;;;;;;;;;;;11.23;97.82;100300.13;6212053;23;19973;-89
2022/04/27 10:49:23;;;;;;;;;;;;;;;11.36;99.57;100297.41;6187372;23;19911;-89
2022/04/27 10:52:01;;;;;;;;;;;;;;;11.38;98.94;100298.53;6213128;23;19999;-88
2022/04/27 10:54:27;;;;;;;;;;;;;;;11.38;97.79;100292.19;6212835;23;19916;-88
2022/04/27 10:56:52;;;;;;;;;;;;;;;11.33;96.07;100287.94;6210962;23;19912;-88
2022/04/27 10:59:36;;;;;;;;;;;;;;;11.35;97.90;100295.84;6212365;23;20445;-89
2022/04/27 11:02:02;;;;;;;;;;;;;;;11.22;95.49;100304.88;6212225;23;19997;-89
2022/04/27 11:04:32;;;;;;;;;;;;;;;11.19;96.03;100300.22;6185025;23;19916;-88
2022/04/27 11:07:15;;;;;;;;;;;;;;;11.21;95.73;100299.75;6209275;23;20384;-89
2022/04/27 11:09:59;;;;;;;;;;;;;;;11.29;95.20;100311.47;6210421;23;19950;-87
2022/04/27 11:12:25;;;;;;;;;;;;;;;11.32;94.67;100313.38;6212212;23;19912;-88
2022/04/27 11:14:56;;;;;;;;;;;;;;;11.32;94.04;100310.63;6212015;23;19918;-87
2022/04/27 11:17:26;;;;;;;;;;;;;;;11.34;95.07;100322.84;6210587;23;19912;-88
2022/04/27 11:19:52;;;;;;;;;;;;;;;11.22;95.40;100316.00;6212092;23;19919;-87
2022/04/27 11:22:18;;;;;;;;;;;;;;;11.25;95.42;100319.88;6211835;23;20249;-88
2022/04/27 11:24:48;;;;;;;;;;;;;;;11.27;93.99;100320.25;6211948;23;20369;-84
2022/04/27 11:27:23;;;;;;;;;;;;;;;11.32;95.31;100324.50;6210613;23;20014;-84
2022/04/27 11:29:50;;;;;;;;;;;;;;;11.38;95.18;100323.53;6210442;23;19916;-83
2022/04/27 11:32:16;;;;;;;;;;;;;;;11.20;92.60;100323.97;6210694;23;19907;-84
2022/04/27 11:34:46;;;;;;;;;;;;;;;11.08;93.17;100324.66;6210221;23;19919;-84
2022/04/27 11:37:15;;;;;;;;;;;;;;;11.01;92.63;100322.06;6211716;23;19916;-83
2022/04/27 11:39:41;;;;;;;;;;;;;;;10.92;92.10;100330.19;6185376;23;19916;-87
2022/04/27 11:42:06;;;;;;;;;;;;;;;10.82;90.68;100336.00;6211851;23;19998;-85
2022/04/27 11:44:32;;;;;;;;;;;;;;;10.74;90.98;100336.19;6211823;23;19966;-84
2022/04/27 11:46:58;;;;;;;;;;;;;;;10.70;88.97;100337.47;6211898;23;19935;-83
2022/04/27 11:49:23;;;;;;;;;;;;;;;10.69;92.54;100335.88;6211736;23;20254;-83
2022/04/27 11:51:49;;;;;;;;;;;;;;;10.70;90.33;100354.09;6211411;23;19922;-83
2022/04/27 11:54:25;;;;;;;;;;;;;;;10.70;90.53;100345.78;6210710;23;19920;-84
2022/04/27 11:56:54;;;;;;;;;;;;;;;10.71;89.18;100347.34;6211991;23;19915;-84
2022/04/27 11:59:19;;;;;;;;;;;;;;;10.73;88.49;100344.91;6210582;23;20242;-83
2022/04/27 12:01:51;;;;;;;;;;;;;;;10.74;87.94;100347.28;6211842;23;19912;-88
2022/04/27 12:04:17;;;;;;;;;;;;;;;10.68;86.52;100343.44;6210983;23;20327;-87
2022/04/27 12:06:44;;;;;;;;;;;;;;;10.73;86.52;100344.91;6212631;23;19935;-87
2022/04/27 12:09:17;;;;;;;;;;;;;;;10.80;85.68;100344.75;6187046;23;19935;-87
2022/04/27 12:11:42;;;;;;;;;;;;;;;10.93;86.34;100345.66;6213269;23;19912;-86
2022/04/27 12:14:07;;;;;;;;;;;;;;;11.01;83.11;100349.03;6210373;23;19974;-87
2022/04/27 12:16:34;;;;;;;;;;;;;;;10.97;83.17;100346.34;6210119;23;19943;-87
2022/04/27 12:19:00;;;;;;;;;;;;;;;10.92;83.20;100349.63;6211525;23;20253;-83
2022/04/27 12:21:29;;;;;;;;;;;;;;;11.00;84.64;100337.13;6211255;23;19938;-87
2022/04/27 12:23:56;;;;;;;;;;;;;;;11.09;84.06;100342.88;6212449;23;19912;-87
2022/04/27 12:26:25;;;;;;;;;;;;;;;11.06;83.91;100348.53;6211638;23;19950;-88
2022/04/27 12:28:50;;;;;;;;;;;;;;;10.97;82.65;100354.66;6212063;23;19911;-87
2022/04/27 12:31:16;;;;;;;;;;;;;;;10.91;83.48;100348.09;6209795;23;19922;-87
2022/04/27 12:33:46;;;;;;;;;;;;;;;10.88;84.03;100346.16;6210044;23;19947;-87
2022/04/27 12:39:09;;;;;;;;;;;;;;;10.61;82.84;100346.38;6209980;23;19919;-84
2022/04/27 12:41:37;;;;;;;;;;;;;;;10.61;85.44;100360.25;6210603;23;19916;-84
2022/04/27 12:44:03;;;;;;;;;;;;;;;10.75;84.87;100343.28;6211248;23;19916;-84
2022/04/27 12:46:28;;;;;;;;;;;;;;;10.70;83.47;100345.78;6210298;23;19915;-84
2022/04/27 12:49:04;;;;;;;;;;;;;;;10.66;83.83;100350.63;6211686;23;20270;-84
2022/04/27 12:51:32;;;;;;;;;;;;;;;10.60;82.96;100344.00;6211191;23;19916;-84
2022/04/27 12:53:57;;;;;;;;;;;;;;;10.67;84.11;100341.09;6211912;23;20242;-84
2022/04/27 12:56:30;;;;;;;;;;;;;;;10.72;83.56;100352.44;6211490;23;19915;-84
2022/04/27 12:59:05;;;;;;;;;;;;;;;10.75;82.25;100339.72;6209692;23;19915;-87
2022/04/27 13:01:31;;;;;;;;;;;;;;;10.80;83.22;100336.44;6210129;23;19915;-87
2022/04/27 13:03:56;;;;;;;;;;;;;;;10.82;83.05;100345.13;6210076;23;19918;-87
2022/04/27 13:06:22;;;;;;;;;;;;;;;10.90;83.26;100340.19;6210738;23;19986;-87
2022/04/27 13:08:48;;;;;;;;;;;;;;;10.94;83.89;100336.09;6210643;23;19958;-87